Skagway, AK

4:05 PM AKDT on October 30, 2014 (GMT -0800)
Skagway | Change Station
CLOSE
Current Station
Airport
Location: Skagway,
Elevation: 16 ft
Nearby Weather Stations

Elev 16 ft 59.46 °N, 135.32 °W | Updated 3 minutes ago

Overcast
Overcast
42 °F
Feels Like 42 °F
N
0
Wind Variable Wind from North

Today
High -- | Low -- °F
--% Chance of Precip.
Yesterday
High -- | Low -- °F
Precip. -- in
8:16 AM 5:12 PM
Waxing Crescent, 49% visible
Pressure 29.39 in
Visibility 6.0 miles
Clouds Overcast 1400 ft
Dew Point 39 °F
Humidity 89%
Rainfall 0.08 in
Snow Depth Not available.
UV 0 out of 12
Pollen Not available.
Air Quality Not available.
Flu Activity Not available.
SPECI PAGY 310002Z AUTO 00000KT 6SM BR OVC014 06/04 A2939 RMK AO2 T00560039 TSNO

More Conditions Fewer Conditions

Pressure 29.39 in
Visibility 6.0 miles
Clouds Overcast 1400 ft
Dew Point 39 °F
Humidity 89%
Rainfall 0.08 in
Snow Depth Not available.
UV 0 out of 12
Pollen Not available.
Air Quality Not available.
Flu Activity Not available.
SPECI PAGY 310002Z AUTO 00000KT 6SM BR OVC014 06/04 A2939 RMK AO2 T00560039 TSNO

More Conditions Fewer Conditions

10-Day Weather Forecast

Almanac

Astronomy

Oct. 30, 2014 Rise Set
Actual Time
Civil Twilight
Nautical Twilight
Astronomical Twilight
Moon
Length of Visible Light
Length of Day
Tomorrow will be .
, % of the Moon is Illuminated

Today's Extremes

State Highs State Lows

Community

WunderPhotos

Upload Photos

1,766,501 photos uploaded!

WunderBlogs® & News

Nearby

Air Quality

  Air Quality AQ Index Pollutant
Not available.

Snow Depth

Station Depth Elevation

Earthquake Activity

City Distance Mag. Time & Date
Minimum magnitude displayed is 2.5.

Coastal Water Temperatures

Place Temperature

Nearby Weather Stations